Villas de Buenaventura, Puerto Rico
Current Conditions -  °F | °C
As of 3:53 PM on Sunday 21 Dec 2014 (Local Time) from TJNR Reporting Station
Clear Clear  
Wind Chill: 28°   Ceiling: Unl
Heat Index: 29°   Visibility: 10mi
Dew Point: 19°   Wind: 13mph
Humidity: 60%   Direction: 40°NE
Pressure: 30.05"   Gusts: NA
Location:  18.0547°N, 65.8738°W
Report Text: TJNR 211953Z AUTO 04011KT 10SM CLR 28/19 A3005 RMK AO2 SLP174 T02780194 $
Loading
Personal Weather Stations






























Interactive Weather Map New forecast layout! Learn more

10-Day Weather Forecast

Advertisements
Track Severe Weather on mobile